Time;durP1;ratioP1;P1;durP2;ratioP2;P2;SDS_P1;SDS_P2;PMS_P1;PMS_P2;Temp;Humidity;BMP_temperature;BMP_pressure;BME280_temperature;BME280_humidity;BME280_pressure;Samples;Min_cycle;Max_cycle;Signal;HPM_P1;HPM_P2
2021/08/21 00:01:38;;;;;;;4.05;2.85;;;;;;;;;;5040722;28;20032;-82
2021/08/21 00:04:07;;;;;;;3.40;2.67;;;;;;;;;;5038623;28;20052;-82
2021/08/21 00:06:34;;;;;;;3.30;3.00;;;;;;;;;;5038354;28;20024;-82
2021/08/21 00:09:00;;;;;;;4.47;3.25;;;;;;;;;;5038424;28;20061;-82
2021/08/21 00:11:26;;;;;;;4.50;3.55;;;;;;;;;;5038052;28;20017;-82
2021/08/21 00:13:52;;;;;;;4.72;3.70;;;;;;;;;;5037447;28;20035;-81
2021/08/21 00:16:18;;;;;;;3.72;3.10;;;;;;;;;;5036523;28;20116;-80
2021/08/21 00:18:44;;;;;;;3.13;2.83;;;;;;;;;;5034826;28;20486;-80
2021/08/21 00:21:13;;;;;;;4.07;3.22;;;;;;;;;;5036874;28;20117;-81
2021/08/21 00:23:39;;;;;;;4.07;3.03;;;;;;;;;;5037152;28;20021;-80
2021/08/21 00:26:05;;;;;;;3.33;3.03;;;;;;;;;;5036175;28;20060;-82
2021/08/21 00:28:31;;;;;;;3.38;2.88;;;;;;;;;;5036838;28;20431;-81
2021/08/21 00:30:57;;;;;;;3.42;3.13;;;;;;;;;;5040007;28;20021;-82
2021/08/21 00:33:23;;;;;;;3.65;3.05;;;;;;;;;;5057158;28;20036;-82
2021/08/21 00:35:49;;;;;;;4.10;3.28;;;;;;;;;;5056803;28;20056;-81
2021/08/21 00:38:15;;;;;;;3.35;2.40;;;;;;;;;;5055564;28;20111;-83
2021/08/21 00:40:41;;;;;;;3.03;2.72;;;;;;;;;;5056027;28;20021;-82
2021/08/21 00:43:08;;;;;;;6.22;3.30;;;;;;;;;;5056203;28;20036;-82
2021/08/21 00:45:34;;;;;;;4.43;3.05;;;;;;;;;;5056573;28;20097;-83
2021/08/21 00:48:01;;;;;;;4.53;3.30;;;;;;;;;;5056932;28;20028;-82
2021/08/21 00:50:27;;;;;;;4.30;3.55;;;;;;;;;;5053192;28;20401;-81
2021/08/21 00:52:53;;;;;;;3.85;3.25;;;;;;;;;;5055809;28;20087;-81
2021/08/21 00:55:19;;;;;;;4.07;3.65;;;;;;;;;;5056725;28;20055;-81
2021/08/21 00:57:45;;;;;;;3.63;3.13;;;;;;;;;;5055825;28;20530;-81
2021/08/21 01:00:13;;;;;;;4.28;3.20;;;;;;;;;;5055919;28;20492;-80
2021/08/21 01:02:39;;;;;;;3.53;3.10;;;;;;;;;;5054641;28;20393;-81
2021/08/21 01:05:06;;;;;;;6.10;3.72;;;;;;;;;;5056446;28;20029;-81
2021/08/21 01:07:34;;;;;;;4.65;3.78;;;;;;;;;;5042858;28;20083;-82
2021/08/21 01:10:04;;;;;;;4.13;3.70;;;;;;;;;;5035811;28;20028;-82
2021/08/21 01:12:31;;;;;;;4.28;3.70;;;;;;;;;;5036576;28;20028;-80
2021/08/21 01:14:57;;;;;;;3.70;3.22;;;;;;;;;;5037672;28;20053;-82
2021/08/21 01:17:23;;;;;;;5.03;3.63;;;;;;;;;;5036264;28;20091;-81
2021/08/21 01:19:50;;;;;;;4.72;3.97;;;;;;;;;;5035511;28;20022;-82
2021/08/21 01:22:18;;;;;;;6.93;4.32;;;;;;;;;;5036444;28;20092;-81
2021/08/21 01:24:44;;;;;;;4.82;3.97;;;;;;;;;;5044304;28;20037;-80
2021/08/21 01:27:21;;;;;;;4.70;3.83;;;;;;;;;;5054547;28;20021;-82
2021/08/21 01:29:47;;;;;;;4.30;3.88;;;;;;;;;;5055004;28;20082;-81
2021/08/21 01:32:14;;;;;;;5.70;4.65;;;;;;;;;;5056826;28;20469;-81
2021/08/21 01:34:40;;;;;;;4.95;4.10;;;;;;;;;;5056113;28;20029;-79
2021/08/21 01:37:06;;;;;;;4.40;3.80;;;;;;;;;;5054577;28;20393;-80
2021/08/21 01:39:32;;;;;;;3.97;3.58;;;;;;;;;;5054525;28;20047;-80
2021/08/21 01:41:58;;;;;;;5.32;3.85;;;;;;;;;;5051277;28;20025;-81
2021/08/21 01:44:24;;;;;;;4.90;4.00;;;;;;;;;;5068650;28;20021;-81
2021/08/21 01:46:50;;;;;;;5.20;4.10;;;;;;;;;;5071790;28;20033;-80
2021/08/21 01:49:21;;;;;;;4.63;4.00;;;;;;;;;;5062116;28;20032;-82
2021/08/21 01:51:48;;;;;;;4.80;4.20;;;;;;;;;;5057640;28;20044;-82
2021/08/21 01:54:15;;;;;;;5.50;4.28;;;;;;;;;;5061980;28;20033;-81
2021/08/21 01:56:44;;;;;;;5.38;4.00;;;;;;;;;;5060866;28;20025;-81
2021/08/21 01:59:17;;;;;;;5.15;4.18;;;;;;;;;;5059823;28;20032;-81
2021/08/21 02:01:43;;;;;;;4.03;3.63;;;;;;;;;;5056637;28;20123;-82
2021/08/21 02:04:09;;;;;;;4.30;3.83;;;;;;;;;;5061850;28;20021;-82
2021/08/21 02:06:35;;;;;;;4.30;3.90;;;;;;;;;;5059536;28;20043;-82
2021/08/21 02:09:01;;;;;;;4.03;3.55;;;;;;;;;;5059893;28;20029;-82
2021/08/21 02:11:27;;;;;;;5.30;3.80;;;;;;;;;;5059921;28;20036;-82
2021/08/21 02:13:53;;;;;;;3.40;3.10;;;;;;;;;;5060413;28;20032;-82
2021/08/21 02:16:20;;;;;;;4.10;3.42;;;;;;;;;;5060472;28;20033;-81
2021/08/21 02:18:46;;;;;;;4.70;3.33;;;;;;;;;;5042572;28;20041;-80
2021/08/21 02:21:13;;;;;;;5.53;4.43;;;;;;;;;;5038579;28;20021;-81
2021/08/21 02:23:39;;;;;;;3.75;3.38;;;;;;;;;;5037578;28;20140;-81
2021/08/21 02:26:05;;;;;;;4.25;3.53;;;;;;;;;;5039532;28;20040;-80
2021/08/21 02:28:31;;;;;;;3.88;3.42;;;;;;;;;;5040306;28;20494;-81
2021/08/21 02:30:57;;;;;;;4.55;3.63;;;;;;;;;;5040219;28;20374;-79
2021/08/21 02:33:23;;;;;;;5.13;4.10;;;;;;;;;;5039931;28;20065;-80
2021/08/21 02:35:49;;;;;;;4.63;3.40;;;;;;;;;;5056928;28;20052;-78
2021/08/21 02:38:15;;;;;;;5.28;3.85;;;;;;;;;;5062546;28;20029;-79
2021/08/21 02:40:42;;;;;;;4.15;3.75;;;;;;;;;;5061698;28;20028;-79
2021/08/21 02:43:09;;;;;;;3.47;3.17;;;;;;;;;;5063080;28;20040;-80
2021/08/21 02:45:35;;;;;;;3.80;3.35;;;;;;;;;;5062462;28;20037;-79
2021/08/21 02:48:01;;;;;;;3.58;3.00;;;;;;;;;;5062257;28;20523;-78
2021/08/21 02:50:27;;;;;;;3.60;3.17;;;;;;;;;;5063559;28;20049;-79
2021/08/21 02:52:56;;;;;;;3.80;3.10;;;;;;;;;;5060044;28;20029;-79
2021/08/21 02:55:26;;;;;;;3.80;3.30;;;;;;;;;;5062765;28;20032;-79
2021/08/21 02:57:52;;;;;;;5.63;3.53;;;;;;;;;;5062166;28;20063;-81
2021/08/21 03:00:18;;;;;;;3.97;3.55;;;;;;;;;;5059424;28;20029;-82
2021/08/21 03:02:45;;;;;;;4.15;3.40;;;;;;;;;;5059667;28;20020;-82
2021/08/21 03:05:11;;;;;;;4.63;3.25;;;;;;;;;;5058043;28;20095;-82
2021/08/21 03:07:37;;;;;;;3.38;3.08;;;;;;;;;;5060267;28;20446;-82
2021/08/21 03:10:04;;;;;;;3.47;3.10;;;;;;;;;;5059854;28;20493;-83
2021/08/21 03:12:31;;;;;;;3.42;2.85;;;;;;;;;;5060236;28;20449;-82
2021/08/21 03:14:57;;;;;;;4.05;3.67;;;;;;;;;;5060323;28;20377;-82
2021/08/21 03:17:23;;;;;;;4.28;3.58;;;;;;;;;;5060323;28;20067;-81
2021/08/21 03:19:49;;;;;;;3.47;3.17;;;;;;;;;;5059304;28;20025;-83
2021/08/21 03:22:15;;;;;;;3.35;3.05;;;;;;;;;;5059988;28;20025;-82
2021/08/21 03:24:41;;;;;;;3.45;3.15;;;;;;;;;;5060611;28;20074;-82
2021/08/21 03:27:07;;;;;;;3.53;3.15;;;;;;;;;;5074985;28;20071;-84
2021/08/21 03:29:34;;;;;;;3.53;3.22;;;;;;;;;;5060158;28;20066;-79
2021/08/21 03:32:00;;;;;;;3.47;3.17;;;;;;;;;;5056962;28;20053;-80
2021/08/21 03:34:26;;;;;;;4.43;3.67;;;;;;;;;;5056229;28;20036;-81
2021/08/21 03:36:53;;;;;;;5.32;3.95;;;;;;;;;;5056484;28;20401;-81
2021/08/21 03:39:19;;;;;;;4.28;3.75;;;;;;;;;;5058535;28;20029;-82
2021/08/21 03:41:45;;;;;;;3.83;3.50;;;;;;;;;;5062791;28;20025;-81
2021/08/21 03:44:11;;;;;;;3.70;3.30;;;;;;;;;;5064751;28;20328;-80
2021/08/21 03:46:37;;;;;;;3.58;3.17;;;;;;;;;;5066432;28;20029;-81
2021/08/21 03:49:04;;;;;;;4.15;3.30;;;;;;;;;;5059817;28;20078;-81
2021/08/21 03:51:30;;;;;;;2.97;2.70;;;;;;;;;;5059653;28;20081;-82
2021/08/21 03:53:56;;;;;;;3.30;3.00;;;;;;;;;;5060165;28;20398;-80
2021/08/21 03:56:22;;;;;;;3.40;3.10;;;;;;;;;;5058839;28;20021;-82
2021/08/21 03:58:48;;;;;;;3.63;3.33;;;;;;;;;;5055800;28;20029;-83
2021/08/21 04:01:14;;;;;;;4.53;3.75;;;;;;;;;;5056950;28;20021;-82
2021/08/21 04:03:40;;;;;;;3.22;2.90;;;;;;;;;;5057635;28;20371;-81
2021/08/21 04:06:10;;;;;;;3.28;2.97;;;;;;;;;;5058027;28;20080;-81
2021/08/21 04:08:37;;;;;;;3.78;3.38;;;;;;;;;;5056308;28;20035;-81
2021/08/21 04:11:03;;;;;;;3.83;3.00;;;;;;;;;;5056789;28;20028;-82
2021/08/21 04:13:29;;;;;;;3.92;3.53;;;;;;;;;;5058108;28;20021;-81
2021/08/21 04:15:55;;;;;;;2.95;2.67;;;;;;;;;;5056880;28;20025;-82
2021/08/21 04:18:21;;;;;;;2.97;2.70;;;;;;;;;;5056626;28;20029;-81
2021/08/21 04:20:48;;;;;;;3.25;2.95;;;;;;;;;;5058055;28;20029;-81
2021/08/21 04:23:14;;;;;;;3.55;3.25;;;;;;;;;;5058120;28;20071;-82
2021/08/21 04:25:40;;;;;;;3.60;3.13;;;;;;;;;;5057538;28;20032;-82
2021/08/21 04:28:06;;;;;;;5.07;3.42;;;;;;;;;;5056975;28;20465;-82
2021/08/21 04:30:32;;;;;;;3.35;3.05;;;;;;;;;;5055939;28;20025;-80
2021/08/21 04:32:58;;;;;;;4.20;3.15;;;;;;;;;;5057421;28;20052;-81
2021/08/21 04:35:24;;;;;;;3.75;2.95;;;;;;;;;;5053437;28;20022;-82
2021/08/21 04:37:50;;;;;;;3.55;3.17;;;;;;;;;;5037239;28;20018;-80
2021/08/21 04:40:17;;;;;;;5.00;3.25;;;;;;;;;;5037702;28;20033;-81
2021/08/21 04:42:43;;;;;;;3.47;3.08;;;;;;;;;;5035846;28;20044;-82
2021/08/21 04:45:10;;;;;;;3.85;3.30;;;;;;;;;;5036481;28;20022;-82
2021/08/21 04:47:36;;;;;;;3.47;2.92;;;;;;;;;;5037102;28;20028;-81
2021/08/21 04:50:03;;;;;;;4.25;3.03;;;;;;;;;;5037268;28;20031;-81
2021/08/21 04:52:29;;;;;;;2.95;2.63;;;;;;;;;;5037871;28;20029;-81
2021/08/21 04:54:55;;;;;;;3.10;2.80;;;;;;;;;;5056172;28;20033;-81
2021/08/21 04:57:22;;;;;;;3.58;3.10;;;;;;;;;;5057099;28;20104;-82
2021/08/21 04:59:48;;;;;;;5.15;3.30;;;;;;;;;;5058114;28;20031;-81
2021/08/21 05:02:14;;;;;;;4.20;2.63;;;;;;;;;;5058856;28;20024;-80
2021/08/21 05:04:40;;;;;;;3.42;3.00;;;;;;;;;;5058445;28;20059;-81
2021/08/21 05:07:06;;;;;;;3.53;3.22;;;;;;;;;;5058768;28;20021;-81
2021/08/21 05:09:32;;;;;;;3.75;3.10;;;;;;;;;;5057796;28;20111;-81
2021/08/21 05:11:58;;;;;;;7.13;3.67;;;;;;;;;;5055512;28;20040;-81
2021/08/21 05:14:24;;;;;;;3.83;3.22;;;;;;;;;;5059214;28;20343;-81
2021/08/21 05:16:50;;;;;;;3.95;3.55;;;;;;;;;;5058423;28;20128;-81
2021/08/21 05:22:39;;;;;;;3.72;3.40;;;;;;;;;;5035988;28;20029;-81
2021/08/21 05:25:05;;;;;;;4.43;3.42;;;;;;;;;;5059812;28;20021;-81
2021/08/21 05:27:32;;;;;;;4.72;3.90;;;;;;;;;;5066392;28;20081;-81
2021/08/21 05:29:59;;;;;;;3.92;3.45;;;;;;;;;;5065269;28;20090;-81
2021/08/21 05:32:25;;;;;;;4.15;3.33;;;;;;;;;;5063385;28;20486;-80
2021/08/21 05:34:51;;;;;;;3.75;3.22;;;;;;;;;;5064072;28;20433;-81
2021/08/21 05:37:17;;;;;;;4.22;3.67;;;;;;;;;;5063006;28;20025;-81
2021/08/21 05:39:43;;;;;;;6.57;4.63;;;;;;;;;;5062630;28;20528;-81
2021/08/21 05:42:09;;;;;;;4.43;3.75;;;;;;;;;;5064313;28;20478;-81
2021/08/21 05:44:35;;;;;;;4.40;3.72;;;;;;;;;;5061375;28;20045;-81
2021/08/21 05:47:01;;;;;;;4.03;3.63;;;;;;;;;;5052582;28;20018;-80
2021/08/21 05:49:27;;;;;;;4.95;3.75;;;;;;;;;;5042606;28;20030;-81
2021/08/21 05:51:53;;;;;;;4.43;3.75;;;;;;;;;;5041380;28;20033;-80
2021/08/21 05:54:19;;;;;;;9.52;4.38;;;;;;;;;;5041128;28;20033;-80
2021/08/21 05:56:45;;;;;;;4.43;3.60;;;;;;;;;;5040832;28;20030;-81
2021/08/21 05:59:11;;;;;;;4.68;3.83;;;;;;;;;;5040572;28;20025;-80
2021/08/21 06:01:38;;;;;;;4.72;3.92;;;;;;;;;;5041490;28;20030;-80
2021/08/21 06:04:05;;;;;;;6.00;4.65;;;;;;;;;;5045083;28;20028;-80
2021/08/21 06:06:33;;;;;;;5.25;4.45;;;;;;;;;;5043615;28;20104;-80
2021/08/21 06:08:59;;;;;;;5.07;4.57;;;;;;;;;;5058174;28;20043;-81
2021/08/21 06:11:25;;;;;;;5.40;4.88;;;;;;;;;;5063057;28;20025;-81
2021/08/21 06:13:51;;;;;;;4.38;3.97;;;;;;;;;;5062155;28;20025;-81
2021/08/21 06:16:17;;;;;;;3.85;3.53;;;;;;;;;;5060580;28;20025;-81
2021/08/21 06:18:43;;;;;;;4.22;3.83;;;;;;;;;;5062528;28;20025;-81
2021/08/21 06:21:09;;;;;;;4.63;4.22;;;;;;;;;;5062515;28;20036;-81
2021/08/21 06:23:35;;;;;;;4.97;4.45;;;;;;;;;;5041038;28;20026;-81
2021/08/21 06:26:01;;;;;;;5.20;4.10;;;;;;;;;;5041836;28;20072;-82
2021/08/21 06:28:27;;;;;;;4.32;3.92;;;;;;;;;;5040030;28;20036;-82
2021/08/21 06:30:53;;;;;;;4.82;4.40;;;;;;;;;;5042988;28;20034;-80
2021/08/21 06:33:19;;;;;;;5.47;4.47;;;;;;;;;;5041458;28;20117;-82
2021/08/21 06:35:46;;;;;;;5.82;3.63;;;;;;;;;;5040333;28;20033;-83
2021/08/21 06:38:12;;;;;;;4.13;3.72;;;;;;;;;;5040647;28;20052;-82
2021/08/21 06:40:38;;;;;;;4.78;3.85;;;;;;;;;;5041334;28;20203;-82
2021/08/21 06:43:04;;;;;;;4.22;3.80;;;;;;;;;;5041201;28;20311;-82
2021/08/21 06:45:30;;;;;;;3.50;3.20;;;;;;;;;;5042259;28;20080;-82
2021/08/21 06:47:56;;;;;;;3.85;3.42;;;;;;;;;;5040909;28;20308;-82
2021/08/21 06:50:22;;;;;;;3.90;3.47;;;;;;;;;;5039154;28;20067;-82
2021/08/21 06:52:51;;;;;;;3.80;3.50;;;;;;;;;;5039950;28;20034;-82
2021/08/21 06:55:17;;;;;;;4.00;3.60;;;;;;;;;;5041159;28;20083;-80
2021/08/21 06:57:43;;;;;;;4.53;3.35;;;;;;;;;;5040903;28;20033;-80
2021/08/21 07:00:09;;;;;;;5.18;3.83;;;;;;;;;;5040688;28;20032;-80
2021/08/21 07:02:35;;;;;;;4.70;4.18;;;;;;;;;;5040412;28;20098;-80
2021/08/21 07:05:01;;;;;;;5.13;4.32;;;;;;;;;;5040316;28;20022;-81
2021/08/21 07:07:27;;;;;;;4.88;3.70;;;;;;;;;;5042068;28;20052;-81
2021/08/21 07:09:53;;;;;;;4.18;3.70;;;;;;;;;;5042667;28;20037;-81
2021/08/21 07:12:19;;;;;;;3.60;3.30;;;;;;;;;;5040850;28;20030;-81
2021/08/21 07:14:46;;;;;;;3.45;3.15;;;;;;;;;;5043961;28;20014;-81
2021/08/21 07:17:14;;;;;;;4.40;4.00;;;;;;;;;;5051066;28;20025;-82
2021/08/21 07:19:42;;;;;;;3.53;3.22;;;;;;;;;;5050436;28;20022;-81
2021/08/21 07:22:08;;;;;;;3.85;3.55;;;;;;;;;;5051702;28;20085;-82
2021/08/21 07:24:34;;;;;;;4.45;4.00;;;;;;;;;;5053265;28;20041;-80
2021/08/21 07:27:00;;;;;;;4.68;4.20;;;;;;;;;;5055168;28;20022;-82
2021/08/21 07:29:27;;;;;;;4.72;3.92;;;;;;;;;;5051662;28;20059;-81
2021/08/21 07:31:54;;;;;;;4.10;3.63;;;;;;;;;;5050925;28;20072;-81
2021/08/21 07:34:20;;;;;;;7.22;3.90;;;;;;;;;;5041813;28;20048;-80
2021/08/21 07:36:46;;;;;;;4.20;3.78;;;;;;;;;;5040376;28;20100;-81
2021/08/21 07:39:12;;;;;;;4.60;4.20;;;;;;;;;;5041640;28;20033;-81
2021/08/21 07:41:38;;;;;;;4.00;3.70;;;;;;;;;;5049852;28;20036;-81
2021/08/21 07:44:04;;;;;;;5.05;4.30;;;;;;;;;;5052283;28;20036;-80
2021/08/21 07:46:31;;;;;;;5.25;4.28;;;;;;;;;;5046410;28;20025;-81
2021/08/21 07:48:57;;;;;;;4.90;4.40;;;;;;;;;;5042058;28;20641;-81
2021/08/21 07:51:23;;;;;;;4.60;4.18;;;;;;;;;;5047044;28;20029;-81
2021/08/21 07:53:49;;;;;;;4.57;4.18;;;;;;;;;;5045492;28;20320;-81
2021/08/21 07:56:15;;;;;;;5.72;4.40;;;;;;;;;;5038966;28;20101;-81
2021/08/21 07:58:41;;;;;;;6.18;4.22;;;;;;;;;;5039649;28;20051;-82
2021/08/21 08:01:08;;;;;;;5.15;3.80;;;;;;;;;;5047739;28;20034;-82
2021/08/21 08:03:34;;;;;;;4.13;3.67;;;;;;;;;;5051286;28;20026;-81
2021/08/21 08:06:00;;;;;;;5.00;4.38;;;;;;;;;;5046391;28;20045;-81
2021/08/21 08:08:26;;;;;;;4.43;4.03;;;;;;;;;;5042860;28;20034;-81
2021/08/21 08:10:53;;;;;;;6.18;4.15;;;;;;;;;;5041921;28;20029;-81
2021/08/21 08:13:19;;;;;;;4.68;4.28;;;;;;;;;;5042623;28;20064;-81
2021/08/21 08:15:45;;;;;;;6.15;3.95;;;;;;;;;;5039831;28;20029;-82
2021/08/21 08:18:11;;;;;;;4.75;4.18;;;;;;;;;;5042043;28;20442;-82
2021/08/21 08:20:37;;;;;;;6.07;4.32;;;;;;;;;;5042785;28;20466;-82
2021/08/21 08:23:06;;;;;;;4.70;4.05;;;;;;;;;;5040344;28;20063;-82
2021/08/21 08:25:32;;;;;;;4.82;3.95;;;;;;;;;;5041665;28;20017;-80
2021/08/21 08:27:58;;;;;;;5.10;4.60;;;;;;;;;;5041110;28;20034;-80
2021/08/21 08:30:24;;;;;;;4.22;3.83;;;;;;;;;;5040216;28;20501;-80
2021/08/21 08:32:50;;;;;;;4.40;3.72;;;;;;;;;;5040936;28;20033;-80
2021/08/21 08:35:16;;;;;;;4.47;4.07;;;;;;;;;;5041134;28;20104;-81
2021/08/21 08:37:42;;;;;;;4.55;3.75;;;;;;;;;;5041880;28;20026;-82
2021/08/21 08:40:10;;;;;;;4.90;4.28;;;;;;;;;;5039823;28;20033;-81
2021/08/21 08:42:39;;;;;;;4.65;4.13;;;;;;;;;;5041839;28;20029;-81
2021/08/21 08:45:05;;;;;;;4.30;4.00;;;;;;;;;;5061951;28;20063;-81
2021/08/21 08:47:32;;;;;;;4.28;3.97;;;;;;;;;;5061780;28;20036;-82
2021/08/21 08:50:03;;;;;;;4.32;3.92;;;;;;;;;;5061588;28;20083;-81
2021/08/21 08:52:29;;;;;;;5.18;4.07;;;;;;;;;;5062126;28;20488;-82
2021/08/21 08:54:55;;;;;;;5.30;4.53;;;;;;;;;;5060476;28;20056;-82
2021/08/21 08:57:40;;;;;;;5.63;4.72;;;;;;;;;;5060357;28;20458;-82
2021/08/21 09:00:07;;;;;;;7.47;4.72;;;;;;;;;;5060196;28;20493;-82
2021/08/21 09:02:39;;;;;;;5.10;4.60;;;;;;;;;;5040526;28;20065;-82
2021/08/21 09:05:06;;;;;;;4.80;4.28;;;;;;;;;;5041363;28;20022;-82
2021/08/21 09:07:38;;;;;;;5.07;4.13;;;;;;;;;;5042544;28;20025;-81
2021/08/21 09:10:15;;;;;;;4.13;3.72;;;;;;;;;;5054564;28;20033;-81
2021/08/21 09:12:42;;;;;;;5.03;4.28;;;;;;;;;;5054740;28;20067;-82
2021/08/21 09:15:28;;;;;;;6.28;3.83;;;;;;;;;;5042818;28;20040;-82
2021/08/21 09:17:59;;;;;;;3.72;3.38;;;;;;;;;;5046759;28;20041;-81
2021/08/21 09:20:25;;;;;;;3.88;3.58;;;;;;;;;;5055713;28;20054;-81
2021/08/21 09:22:51;;;;;;;4.30;3.90;;;;;;;;;;5060255;28;20025;-81
2021/08/21 09:25:31;;;;;;;5.43;3.83;;;;;;;;;;5060928;28;20021;-81
2021/08/21 09:27:57;;;;;;;3.85;3.53;;;;;;;;;;5060248;28;20028;-81
2021/08/21 09:30:27;;;;;;;4.30;3.90;;;;;;;;;;5060191;28;20029;-81
2021/08/21 09:33:02;;;;;;;4.30;3.90;;;;;;;;;;5060553;28;20032;-82
2021/08/21 09:35:32;;;;;;;3.80;3.50;;;;;;;;;;5060031;28;20188;-82
2021/08/21 09:37:59;;;;;;;4.43;4.05;;;;;;;;;;5058151;28;20040;-81
2021/08/21 09:40:25;;;;;;;4.35;3.95;;;;;;;;;;5059190;28;20025;-81
2021/08/21 09:42:51;;;;;;;4.07;3.78;;;;;;;;;;5059411;28;20029;-81
2021/08/21 09:45:20;;;;;;;3.45;3.15;;;;;;;;;;5059751;28;20017;-81
2021/08/21 09:47:46;;;;;;;3.88;3.58;;;;;;;;;;5058693;28;20032;-81
2021/08/21 09:50:14;;;;;;;3.75;3.45;;;;;;;;;;5062212;28;20025;-81
2021/08/21 09:52:40;;;;;;;4.13;3.67;;;;;;;;;;5059918;28;20713;-83
2021/08/21 09:55:08;;;;;;;4.00;3.70;;;;;;;;;;5060155;28;20383;-81
2021/08/21 09:57:34;;;;;;;4.05;3.75;;;;;;;;;;5059364;28;20025;-82
2021/08/21 10:00:01;;;;;;;3.60;3.30;;;;;;;;;;5058323;28;20152;-82
2021/08/21 10:02:30;;;;;;;3.90;3.53;;;;;;;;;;5056058;28;20025;-82
2021/08/21 10:04:56;;;;;;;3.38;3.08;;;;;;;;;;5056870;28;20025;-82
2021/08/21 10:07:25;;;;;;;3.55;3.25;;;;;;;;;;5057333;28;20069;-82
2021/08/21 10:09:53;;;;;;;3.75;3.45;;;;;;;;;;5058379;28;20083;-82
2021/08/21 10:12:23;;;;;;;3.78;3.35;;;;;;;;;;5057141;28;20025;-82
2021/08/21 10:14:50;;;;;;;4.15;3.28;;;;;;;;;;5062739;28;20074;-82
2021/08/21 10:17:16;;;;;;;4.10;3.70;;;;;;;;;;5062002;28;20035;-82
2021/08/21 10:19:43;;;;;;;3.78;3.47;;;;;;;;;;5060407;28;20079;-83
2021/08/21 10:22:09;;;;;;;4.20;3.80;;;;;;;;;;5063269;28;20041;-81
2021/08/21 10:24:37;;;;;;;5.55;3.92;;;;;;;;;;5063384;28;20021;-81
2021/08/21 10:27:16;;;;;;;4.50;4.07;;;;;;;;;;5061832;28;20049;-82
2021/08/21 10:30:01;;;;;;;3.22;3.03;;;;;;;;;;5067724;28;20029;-81
2021/08/21 10:32:30;;;;;;;4.10;3.78;;;;;;;;;;5071886;28;20021;-82
2021/08/21 10:34:57;;;;;;;4.45;4.05;;;;;;;;;;5070014;28;20025;-81
2021/08/21 10:37:32;;;;;;;4.18;3.78;;;;;;;;;;5071801;28;20029;-80
2021/08/21 10:39:58;;;;;;;4.47;4.07;;;;;;;;;;5070101;28;20025;-80
2021/08/21 10:42:30;;;;;;;4.35;3.90;;;;;;;;;;5071397;28;20056;-82
2021/08/21 10:44:58;;;;;;;4.22;3.83;;;;;;;;;;5070694;28;20025;-81
2021/08/21 10:47:30;;;;;;;4.30;4.00;;;;;;;;;;5069678;28;20029;-81
2021/08/21 10:50:17;;;;;;;3.92;3.55;;;;;;;;;;5072927;28;20044;-82
2021/08/21 10:52:46;;;;;;;4.50;4.13;;;;;;;;;;5065268;28;20064;-81
2021/08/21 10:55:13;;;;;;;4.20;3.85;;;;;;;;;;5067938;28;20021;-82
2021/08/21 10:57:54;;;;;;;4.57;4.18;;;;;;;;;;5069716;28;20107;-81
2021/08/21 11:00:46;;;;;;;4.25;3.85;;;;;;;;;;5070483;28;20092;-81
2021/08/21 11:03:12;;;;;;;6.00;4.00;;;;;;;;;;5067778;28;20040;-83
2021/08/21 11:05:55;;;;;;;5.40;4.22;;;;;;;;;;5049370;28;20029;-81
2021/08/21 11:08:25;;;;;;;4.25;3.95;;;;;;;;;;5050091;28;20071;-81
2021/08/21 11:13:49;;;;;;;4.25;3.85;;;;;;;;;;5049517;28;20026;-83
2021/08/21 11:16:18;;;;;;;4.95;4.47;;;;;;;;;;5049508;28;20093;-81
2021/08/21 11:18:49;;;;;;;4.72;3.95;;;;;;;;;;5049394;28;20040;-81
2021/08/21 11:21:34;;;;;;;4.45;4.05;;;;;;;;;;5050016;28;20021;-83
2021/08/21 11:24:00;;;;;;;4.03;3.70;;;;;;;;;;5067922;28;20082;-82
2021/08/21 11:26:27;;;;;;;4.57;3.90;;;;;;;;;;5067889;28;20040;-83
2021/08/21 11:29:06;;;;;;;3.67;3.38;;;;;;;;;;5065918;28;20028;-80
2021/08/21 11:31:52;;;;;;;4.15;3.78;;;;;;;;;;5066127;28;20025;-82
2021/08/21 11:34:18;;;;;;;4.05;3.65;;;;;;;;;;5067280;28;20031;-83
2021/08/21 11:36:46;;;;;;;4.10;3.78;;;;;;;;;;5068518;28;20025;-82
2021/08/21 11:39:12;;;;;;;4.05;3.75;;;;;;;;;;5059254;28;20105;-81
2021/08/21 11:41:38;;;;;;;3.88;3.58;;;;;;;;;;5047967;28;20387;-81
2021/08/21 11:44:07;;;;;;;4.25;3.85;;;;;;;;;;5047398;28;20519;-82
2021/08/21 11:46:33;;;;;;;4.10;3.80;;;;;;;;;;5047548;28;20044;-82
2021/08/21 11:49:07;;;;;;;4.30;3.90;;;;;;;;;;5048333;28;20057;-81
2021/08/21 11:51:37;;;;;;;3.72;3.42;;;;;;;;;;5048687;28;20075;-82
2021/08/21 11:54:07;;;;;;;4.10;3.72;;;;;;;;;;5045748;28;20029;-83
2021/08/21 11:56:33;;;;;;;4.25;3.88;;;;;;;;;;5057764;28;20157;-85
2021/08/21 11:59:10;;;;;;;3.55;3.25;;;;;;;;;;5068855;28;20037;-84
2021/08/21 12:01:40;;;;;;;3.78;3.42;;;;;;;;;;5070879;28;20014;-83
2021/08/21 12:06:34;;;;;;;4.93;3.70;;;;;;;;;;5063717;28;20585;-82
2021/08/21 12:09:10;;;;;;;3.40;3.20;;;;;;;;;;5062727;28;20489;-82
2021/08/21 12:11:38;;;;;;;3.95;3.65;;;;;;;;;;5064500;28;20060;-82
2021/08/21 12:14:04;;;;;;;4.35;3.95;;;;;;;;;;5066817;28;20021;-83
2021/08/21 12:16:31;;;;;;;4.78;3.55;;;;;;;;;;5067833;28;20020;-82
2021/08/21 12:18:58;;;;;;;4.40;4.00;;;;;;;;;;5066402;28;20521;-81
2021/08/21 12:21:24;;;;;;;5.15;4.47;;;;;;;;;;5068569;28;20051;-81
2021/08/21 12:23:52;;;;;;;4.88;4.47;;;;;;;;;;5068154;28;20036;-83
2021/08/21 12:26:37;;;;;;;4.50;4.10;;;;;;;;;;5066465;28;20033;-82
2021/08/21 12:29:04;;;;;;;4.03;3.63;;;;;;;;;;5066916;28;20021;-82
2021/08/21 12:31:37;;;;;;;4.05;3.65;;;;;;;;;;5067912;28;20025;-81
2021/08/21 12:34:03;;;;;;;3.63;3.33;;;;;;;;;;5067504;28;20033;-82
2021/08/21 12:36:30;;;;;;;4.45;4.07;;;;;;;;;;5067478;28;20021;-83
2021/08/21 12:39:05;;;;;;;4.50;4.10;;;;;;;;;;5065269;28;20451;-84
2021/08/21 12:41:32;;;;;;;5.00;4.60;;;;;;;;;;5063973;28;20029;-84
2021/08/21 12:44:14;;;;;;;3.97;3.67;;;;;;;;;;5045802;28;20032;-82
2021/08/21 12:46:49;;;;;;;3.88;3.58;;;;;;;;;;5047009;28;20068;-81
2021/08/21 12:49:15;;;;;;;4.10;3.80;;;;;;;;;;5047923;28;20098;-84
2021/08/21 12:51:42;;;;;;;4.60;4.20;;;;;;;;;;5049308;28;20041;-83
2021/08/21 12:54:09;;;;;;;4.47;4.07;;;;;;;;;;5047774;28;20084;-83
2021/08/21 12:56:36;;;;;;;4.85;4.07;;;;;;;;;;5042395;28;20079;-82
2021/08/21 12:59:15;;;;;;;4.60;4.25;;;;;;;;;;5042860;28;20021;-83
2021/08/21 13:01:41;;;;;;;4.60;4.03;;;;;;;;;;5041894;28;20022;-84
2021/08/21 13:04:13;;;;;;;4.32;3.95;;;;;;;;;;5039649;28;20188;-82
2021/08/21 13:06:40;;;;;;;4.28;3.67;;;;;;;;;;5040414;28;20018;-83
2021/08/21 13:09:10;;;;;;;4.20;3.83;;;;;;;;;;5040631;28;20025;-83
2021/08/21 13:11:37;;;;;;;4.25;3.85;;;;;;;;;;5039000;28;20084;-83
2021/08/21 13:14:04;;;;;;;4.78;4.25;;;;;;;;;;5040354;28;20048;-82
2021/08/21 13:16:30;;;;;;;4.18;3.88;;;;;;;;;;5038080;28;20060;-83
2021/08/21 13:18:56;;;;;;;4.60;4.20;;;;;;;;;;5053076;28;20033;-81
2021/08/21 13:21:22;;;;;;;4.30;3.67;;;;;;;;;;5058492;28;20040;-83
2021/08/21 13:23:48;;;;;;;3.92;3.40;;;;;;;;;;5059706;28;20025;-82
2021/08/21 13:26:15;;;;;;;4.20;3.70;;;;;;;;;;5058410;28;20528;-84
2021/08/21 13:28:41;;;;;;;4.50;3.97;;;;;;;;;;5060773;28;20044;-82
2021/08/21 13:31:07;;;;;;;4.07;3.75;;;;;;;;;;5060826;28;20032;-82
2021/08/21 13:33:33;;;;;;;4.68;4.28;;;;;;;;;;5058567;28;20048;-82
2021/08/21 13:35:59;;;;;;;3.90;3.60;;;;;;;;;;5045538;28;20034;-82
2021/08/21 13:38:25;;;;;;;4.60;3.50;;;;;;;;;;5043951;28;20033;-81
2021/08/21 13:40:51;;;;;;;4.20;3.90;;;;;;;;;;5044081;28;20034;-81
2021/08/21 13:43:17;;;;;;;3.85;3.55;;;;;;;;;;5039222;28;20079;-82
2021/08/21 13:45:43;;;;;;;4.38;3.97;;;;;;;;;;5038844;28;20053;-82
2021/08/21 13:48:09;;;;;;;3.72;3.42;;;;;;;;;;5040683;28;20029;-82
2021/08/21 13:50:35;;;;;;;4.28;3.88;;;;;;;;;;5042411;28;20108;-84
2021/08/21 13:53:01;;;;;;;5.65;3.88;;;;;;;;;;5040272;28;20037;-81
2021/08/21 13:55:27;;;;;;;4.60;3.92;;;;;;;;;;5041317;28;20037;-81
2021/08/21 13:57:53;;;;;;;4.20;3.85;;;;;;;;;;5044051;28;20132;-82
2021/08/21 14:00:20;;;;;;;4.40;4.10;;;;;;;;;;5048291;28;20029;-83
2021/08/21 14:02:46;;;;;;;5.25;4.47;;;;;;;;;;5048852;28;20048;-83
2021/08/21 14:05:12;;;;;;;4.60;3.90;;;;;;;;;;5042818;28;20021;-84
2021/08/21 14:07:39;;;;;;;4.43;4.03;;;;;;;;;;5042902;28;20451;-83
2021/08/21 14:10:05;;;;;;;6.05;3.83;;;;;;;;;;5043669;28;20021;-83
2021/08/21 14:12:31;;;;;;;4.32;3.70;;;;;;;;;;5052830;28;20078;-84
2021/08/21 14:14:59;;;;;;;4.78;3.97;;;;;;;;;;5062810;28;20044;-83
2021/08/21 14:17:25;;;;;;;4.60;4.20;;;;;;;;;;5063625;28;20086;-84
2021/08/21 14:19:51;;;;;;;4.30;4.00;;;;;;;;;;5062403;28;20446;-82
2021/08/21 14:22:17;;;;;;;5.53;4.15;;;;;;;;;;5061735;28;20089;-84
2021/08/21 14:24:43;;;;;;;4.18;3.70;;;;;;;;;;5063838;28;20045;-81
2021/08/21 14:27:09;;;;;;;4.13;3.80;;;;;;;;;;5059781;28;20064;-82
2021/08/21 14:29:35;;;;;;;4.30;4.00;;;;;;;;;;5061987;28;20071;-84
2021/08/21 14:32:03;;;;;;;4.20;3.78;;;;;;;;;;5062192;28;20032;-82
2021/08/21 14:34:29;;;;;;;5.60;4.10;;;;;;;;;;5061622;28;20033;-83
2021/08/21 14:36:55;;;;;;;4.82;4.43;;;;;;;;;;5060919;28;20025;-81
2021/08/21 14:39:21;;;;;;;4.78;4.20;;;;;;;;;;5061018;28;20048;-82
2021/08/21 14:41:48;;;;;;;4.43;4.03;;;;;;;;;;5059202;28;20021;-80
2021/08/21 14:44:14;;;;;;;5.18;4.03;;;;;;;;;;5061385;28;20017;-82
2021/08/21 14:46:40;;;;;;;4.68;4.28;;;;;;;;;;5046614;28;20028;-84
2021/08/21 14:49:06;;;;;;;4.80;4.40;;;;;;;;;;5049713;28;20041;-82
2021/08/21 14:51:32;;;;;;;4.70;4.30;;;;;;;;;;5051989;28;20029;-83
2021/08/21 14:53:58;;;;;;;3.97;3.58;;;;;;;;;;5056657;28;20045;-83